• Join FlightAware (Why Join?)
  • Login
  • US Flag 
12:43PM EDT


 

Airport Tracker/Info


-or-


 

Live Flight TrackerFlight Track Log ✈ N8425N ✈ 08-Jul-2013 ✈ KUDD - KUAO

Flight Track Log - Related Links

Times and Time Zones

All times are in EDT time to prevent confusion due to time zone crossing. See the N8425N flight status page for this flight to view local times or setup timezone preferences in your user account.

Time Position Orientation Groundspeed Altitude Reporting Facility
EDT Latitude Longitude Course Direction KTS MPH feet Rate Location/Type
09:10AM 33.7833 -116.3500 301° West 96 110 11,700  Level Southern California TRACON
09:11AM 33.8000 -116.3833 301° West 103 119 2,600 -4,080 Descending Southern California TRACON
09:12AM 33.8167 -116.4000 320° Northwest 108 124 3,100 540 Climbing Southern California TRACON
09:13AM 33.8500 -116.4333 320° Northwest 109 125 3,900 540 Climbing Southern California TRACON
09:14AM 33.8667 -116.4500 320° Northwest 121 139 4,400 420 Climbing Southern California TRACON
09:15AM 33.9000 -116.4500 360° North 126 145 4,800 420 Climbing Southern California TRACON
09:16AM 33.9500 -116.4500 360° North 125 144 5,400 540 Climbing Southern California TRACON
09:17AM 33.9833 -116.4667 337° Northwest 125 144 6,000 540 Climbing Southern California TRACON
09:18AM 34.0000 -116.4833 320° Northwest 124 143 6,500 300 Climbing Southern California TRACON
09:20AM 34.0489 -116.4922 351° North 128 147 6,800 540 Climbing Los Angeles Center
09:22AM 34.1183 -116.5239 339° North 134 154 8,600 840 Climbing Los Angeles Center
09:23AM 34.1564 -116.5342 347° North 138 159 9,400 600 Climbing Los Angeles Center
09:24AM 34.1933 -116.5531 337° Northwest 142 163 9,900 540 Climbing Los Angeles Center
09:25AM 34.2294 -116.5700 339° North 141 162 10,500 540 Climbing Los Angeles Center
09:26AM 34.2683 -116.5850 342° North 145 167 11,000 480 Climbing Los Angeles Center
09:27AM 34.3069 -116.6006 342° North 146 168 11,500 480 Climbing Los Angeles Center
09:28AM 34.3478 -116.6156 343° North 152 175 12,000 480 Climbing Los Angeles Center
09:29AM 34.3881 -116.6328 341° North 154 177 12,500 300 Climbing Los Angeles Center
09:30AM 34.4411 -116.6539 342° North 169 194 12,700  Climbing Los Angeles Center
09:31AM 34.4869 -116.6708 343° North 171 197 12,600  Descending Los Angeles Center
09:32AM 34.5086 -116.7119 303° West 159 183 12,700  Climbing Los Angeles Center
09:33AM 34.5114 -116.7642 274° West 153 176 12,600 -60 Descending Los Angeles Center
09:34AM 34.5169 -116.8147 278° West 152 175 12,600  Level Los Angeles Center
09:35AM 34.5214 -116.8653 276° West 151 174 12,600  Level Los Angeles Center
09:36AM 34.5258 -116.9164 276° West 152 175 12,600  Level Los Angeles Center
09:37AM 34.5311 -116.9683 277° West 155 178 12,600  Level Los Angeles Center
09:38AM 34.5358 -117.0192 276° West 154 177 12,600  Level Los Angeles Center
09:39AM 34.5400 -117.0708 276° West 153 176 12,700  Climbing Los Angeles Center
09:40AM 34.5458 -117.1219 278° West 154 177 12,700  Level Los Angeles Center
09:41AM 34.5511 -117.1814 276° West 149 171 12,700  Level Los Angeles Center
09:42AM 34.5550 -117.2300 276° West 147 169 12,700  Level Los Angeles Center
09:43AM 34.5594 -117.2803 276° West 148 170 12,700 -60 Level Los Angeles Center
09:44AM 34.5631 -117.3314 275° West 150 173 12,600  Descending Los Angeles Center
09:45AM 34.5694 -117.3792 279° West 148 170 12,700  Climbing Los Angeles Center
09:46AM 34.5750 -117.4375 277° West 145 167 12,700  Level Los Angeles Center
09:47AM 34.5797 -117.4872 277° West 147 169 12,700  Level Los Angeles Center
09:48AM 34.5853 -117.5486 276° West 151 174 12,700 -60 Level Los Angeles Center
09:49AM 34.5894 -117.5997 276° West 152 175 12,600  Descending Los Angeles Center
09:50AM 34.5944 -117.6508 277° West 153 176 12,700  Climbing Los Angeles Center
09:51AM 34.5989 -117.7014 276° West 152 175 12,700  Level Los Angeles Center
09:53AM 34.6033 -117.7508 276° West 149 171 12,700  Level Los Angeles Center
09:54AM 34.6081 -117.8025 276° West 154 177 12,700  Level Los Angeles Center
09:55AM 34.6125 -117.8519 276° West 149 171 12,700  Level Los Angeles Center
09:56AM 34.6167 -117.9019 276° West 150 173 12,700  Level Los Angeles Center
09:57AM 34.6217 -117.9544 277° West 154 177 12,700  Level Los Angeles Center
09:58AM 34.6264 -118.0153 275° West 151 174 12,700 -60 Level Los Angeles Center
09:59AM 34.6353 -118.0744 280° West 150 173 12,600  Descending Los Angeles Center
10:00AM 34.6703 -118.1114 319° Northwest 162 186 12,700  Climbing Los Angeles Center
10:01AM 34.7025 -118.1508 315° West 165 190 12,700  Level Los Angeles Center
10:02AM 34.7350 -118.1878 317° Northwest 161 185 12,700  Level Los Angeles Center
10:03AM 34.7672 -118.2264 315° West 163 188 12,700  Level Los Angeles Center
10:04AM 34.8056 -118.2728 315° West 162 186 12,700  Level Los Angeles Center
10:05AM 34.8378 -118.3131 314° West 165 190 12,700 -60 Level Los Angeles Center
10:06AM 34.8714 -118.3528 316° Northwest 169 194 12,600 -60 Descending Los Angeles Center
10:07AM 34.9025 -118.3911 315° West 163 188 12,600 -60 Level Los Angeles Center
10:08AM 34.9361 -118.4294 317° Northwest 166 191 12,500 -60 Descending Los Angeles Center
10:09AM 34.9683 -118.4683 315° West 163 188 12,500  Level Los Angeles Center
10:10AM 35.0036 -118.5097 316° Northwest 163 188 12,500  Level Los Angeles Center
10:11AM 35.0342 -118.5481 314° West 159 183 12,500  Level Los Angeles Center
10:12AM 35.0658 -118.5856 316° Northwest 158 182 12,500  Level Los Angeles Center
10:13AM 35.0975 -118.6239 315° West 160 184 12,500  Level Los Angeles Center
10:14AM 35.1336 -118.6694 314° West 158 182 12,500  Level Los Angeles Center
10:15AM 35.1658 -118.7069 316° Northwest 159 183 12,500  Level Los Angeles Center
10:16AM 35.1981 -118.7447 316° Northwest 160 184 12,500  Level Los Angeles Center
10:17AM 35.2367 -118.7719 330° Northwest 163 188 12,500  Level Los Angeles Center
10:18AM 35.2767 -118.7969 333° Northwest 163 188 12,500  Level Los Angeles Center
10:20AM 35.3156 -118.8231 331° Northwest 161 185 12,500  Level Los Angeles Center
10:21AM 35.3636 -118.8550 332° Northwest 162 186 12,500  Level Los Angeles Center
10:22AM 35.4031 -118.8808 332° Northwest 162 186 12,500  Level Los Angeles Center
10:23AM 35.4428 -118.9064 332° Northwest 162 186 12,500  Level Los Angeles Center
10:24AM 35.4803 -118.9342 329° Northwest 160 184 12,500  Level Los Angeles Center
10:25AM 35.5206 -118.9597 333° Northwest 162 186 12,500  Level Los Angeles Center
10:26AM 35.5589 -118.9856 331° Northwest 159 183 12,500  Level Los Angeles Center
10:27AM 35.6058 -119.0181 331° Northwest 160 184 12,500  Level Los Angeles Center
10:28AM 35.6456 -119.0439 332° Northwest 162 186 12,500  Level Los Angeles Center
10:29AM 35.6844 -119.0708 331° Northwest 162 186 12,500  Level Los Angeles Center
10:30AM 35.7236 -119.0967 332° Northwest 160 184 12,500  Level Los Angeles Center
10:31AM 35.7617 -119.1225 331° Northwest 159 183 12,500  Level Los Angeles Center
10:32AM 35.8011 -119.1492 331° Northwest 159 183 12,500  Level Los Angeles Center
10:33AM 35.8494 -119.1819 331° Northwest 162 186 12,500 -60 Level Los Angeles Center
10:34AM 35.8808 -119.2017 333° Northwest 164 189 12,400 -60 Descending Oakland Center
10:35AM 35.9211 -119.2303 330° Northwest 166 191 12,400  Level Oakland Center
10:36AM 35.9606 -119.2564 332° Northwest 163 188 12,400  Level Oakland Center
10:37AM 36.0003 -119.2828 332° Northwest 162 186 12,400  Level Oakland Center
10:38AM 36.0503 -119.3164 331° Northwest 165 190 12,400  Level Oakland Center
10:39AM 36.0906 -119.3428 332° Northwest 166 191 12,400  Level Oakland Center
10:40AM 36.1300 -119.3708 330° Northwest 165 190 12,400  Level Oakland Center
10:41AM 36.1708 -119.3975 332° Northwest 166 191 12,400  Level Oakland Center
10:42AM 36.2106 -119.4250 331° Northwest 165 190 12,400  Level Oakland Center
10:43AM 36.2497 -119.4517 331° Northwest 164 189 12,400  Level Oakland Center
10:44AM 36.2897 -119.4786 332° Northwest 163 188 12,400  Level Oakland Center
10:45AM 36.3294 -119.5056 331° Northwest 162 186 12,400  Level Oakland Center
10:46AM 36.3694 -119.5333 331° Northwest 166 191 12,400  Level Oakland Center
10:47AM 36.4175 -119.5672 330° Northwest 166 191 12,500  Climbing Oakland Center
10:48AM 36.4550 -119.5992 326° Northwest 165 190 12,500 -60 Level Oakland Center
10:49AM 36.4961 -119.6244 334° Northwest 165 190 12,400 -60 Descending Oakland Center
10:50AM 36.5314 -119.6614 320° Northwest 165 190 12,400  Level Oakland Center
10:51AM 36.5761 -119.6800 342° North 171 197 12,400  Level Oakland Center
10:52AM 36.6189 -119.7036 336° Northwest 169 194 12,400  Level Oakland Center
10:53AM 36.6597 -119.7325 330° Northwest 168 193 12,400  Level Oakland Center
10:54AM 36.7003 -119.7614 330° Northwest 168 193 12,400  Level Oakland Center
10:55AM 36.7414 -119.7894 331° Northwest 168 193 12,400  Level Oakland Center
10:56AM 36.7911 -119.8247 330° Northwest 172 198 12,400  Level Oakland Center
10:57AM 36.8319 -119.8528 331° Northwest 168 193 12,400  Level Oakland Center
10:58AM 36.8731 -119.8814 331° Northwest 169 194 12,400  Level Oakland Center
10:59AM 36.9144 -119.9106 331° Northwest 171 197 12,400  Level Oakland Center
11:00AM 36.9558 -119.9397 331° Northwest 172 198 12,400  Level Oakland Center
11:01AM 36.9981 -119.9694 331° Northwest 173 199 12,400  Level Oakland Center
11:02AM 37.0394 -119.9983 331° Northwest 172 198 12,500  Climbing Oakland Center
11:03AM 37.0858 -120.0317 330° Northwest 174 200 12,500  Level Oakland Center
11:04AM 37.1242 -120.0578 331° Northwest 171 197 12,500  Level Oakland Center
11:05AM 37.1658 -120.0878 330° Northwest 173 199 12,500  Level Oakland Center
11:07AM 37.2164 -120.1225 331° Northwest 170 196 12,500  Level Oakland Center
11:08AM 37.2603 -120.1494 334° Northwest 175 201 12,500  Level Oakland Center
11:09AM 37.3011 -120.1819 328° Northwest 174 200 12,500  Level Oakland Center
11:10AM 37.3447 -120.2111 332° Northwest 176 203 12,500  Level Oakland Center
11:11AM 37.3869 -120.2411 331° Northwest 176 203 12,500  Level Oakland Center
11:12AM 37.4303 -120.2694 333° Northwest 178 205 12,500  Level Oakland Center
11:13AM 37.4733 -120.3000 331° Northwest 180 207 12,500  Level Oakland Center
11:14AM 37.5161 -120.3289 332° Northwest 190 219 12,500  Level Oakland Center
11:15AM 37.5561 -120.3667 323° Northwest 179 206 12,500  Level Oakland Center
11:16AM 37.6008 -120.3919 336° Northwest 176 203 12,500  Level Oakland Center
11:17AM 37.6544 -120.4256 334° Northwest 188 216 12,500  Level Oakland Center
11:18AM 37.6964 -120.4572 329° Northwest 178 205 12,500  Level Oakland Center
11:19AM 37.7400 -120.4867 332° Northwest 176 203 12,500  Level Oakland Center
11:20AM 37.7817 -120.5183 329° Northwest 176 203 12,500  Level Oakland Center
11:21AM 37.8256 -120.5475 332° Northwest 177 204 12,500  Level Oakland Center
11:22AM 37.8686 -120.5789 330° Northwest 178 205 12,500  Level Oakland Center
11:23AM 37.9111 -120.6097 330° Northwest 177 204 12,500  Level Oakland Center
11:24AM 37.9536 -120.6414 330° Northwest 175 201 12,500  Level Oakland Center
11:25AM 37.9969 -120.6708 332° Northwest 177 204 12,500  Level Oakland Center
11:26AM 38.0397 -120.7022 330° Northwest 178 205 12,500  Level Oakland Center
11:27AM 38.0903 -120.7381 331° Northwest 175 201 12,500  Level Oakland Center
11:28AM 38.1319 -120.7700 329° Northwest 174 200 12,500  Level Oakland Center
11:29AM 38.1750 -120.8000 331° Northwest 175 201 12,500  Level Oakland Center
11:30AM 38.2167 -120.8303 330° Northwest 175 201 12,500  Level Oakland Center
11:31AM 38.2581 -120.8608 330° Northwest 174 200 12,500  Level Oakland Center
11:32AM 38.3003 -120.8911 331° Northwest 174 200 12,500  Level Oakland Center
11:33AM 38.3406 -120.9211 330° Northwest 170 196 12,500  Level Oakland Center
11:34AM 38.3819 -120.9514 330° Northwest 171 197 12,500  Level Oakland Center
11:35AM 38.4222 -120.9797 331° Northwest 168 193 12,500  Level Oakland Center
11:36AM 38.4706 -121.0147 330° Northwest 168 193 12,500  Level Oakland Center
11:37AM 38.5117 -121.0450 330° Northwest 170 196 12,500  Level Oakland Center
11:38AM 38.5531 -121.0758 330° Northwest 172 198 12,500  Level Oakland Center
11:39AM 38.5939 -121.1061 330° Northwest 172 198 12,500  Level Oakland Center
11:40AM 38.6347 -121.1361 330° Northwest 172 198 12,500  Level Oakland Center
11:41AM 38.6817 -121.1700 331° Northwest 171 197 12,500  Level Oakland Center
11:42AM 38.7164 -121.1958 330° Northwest 169 194 12,500  Level Oakland Center
11:43AM 38.7658 -121.2314 331° Northwest 170 196 12,500  Level Oakland Center
11:44AM 38.8067 -121.2619 330° Northwest 170 196 12,500  Level Oakland Center
11:45AM 38.8483 -121.2914 331° Northwest 171 197 12,500  Level Oakland Center
11:46AM 38.8892 -121.3225 329° Northwest 171 197 12,500  Level Oakland Center
11:47AM 38.9300 -121.3511 331° Northwest 168 193 12,500  Level Oakland Center
11:49AM 38.9833 -121.4000 325° Northwest 169 194 12,500  Level Northern Cal TRACON
11:50AM 39.0333 -121.4333 333° Northwest 170 196 12,500  Level Northern Cal TRACON
11:52AM 39.1019 -121.4789 333° Northwest 169 194 12,500  Level Oakland Center
11:53AM 39.1428 -121.5089 330° Northwest 169 194 12,500  Level Oakland Center
11:54AM 39.1842 -121.5400 330° Northwest 172 198 12,500  Level Oakland Center
11:55AM 39.2247 -121.5697 330° Northwest 168 193 12,500  Level Oakland Center
11:56AM 39.2664 -121.6006 330° Northwest 172 198 12,500  Level Oakland Center
11:57AM 39.3069 -121.6319 329° Northwest 170 196 12,500  Level Oakland Center
11:58AM 39.3503 -121.6561 337° Northwest 170 196 12,500  Level Oakland Center
11:59AM 39.3983 -121.6619 355° North 171 197 12,500  Level Oakland Center
12:00PM 39.4561 -121.6714 353° North 173 199 12,500  Level Oakland Center
12:01PM 39.4989 -121.6786 353° North 171 197 12,500  Level Oakland Center
12:02PM 39.5458 -121.6886 351° North 170 196 12,500  Level Oakland Center
12:03PM 39.5925 -121.6953 354° North 168 193 12,500  Level Oakland Center
12:04PM 39.6492 -121.7058 352° North 170 196 12,500  Level Oakland Center
12:05PM 39.6972 -121.7144 352° North 173 199 12,500  Level Oakland Center
12:06PM 39.7444 -121.7219 353° North 171 197 12,500  Level Oakland Center
12:07PM 39.7908 -121.7308 352° North 169 194 12,500  Level Oakland Center
12:08PM 39.8378 -121.7389 352° North 169 194 12,500  Level Oakland Center
12:09PM 39.8842 -121.7469 352° North 169 194 12,500  Level Oakland Center
12:10PM 39.9319 -121.7553 352° North 171 197 12,500  Level Oakland Center
12:11PM 39.9778 -121.7642 352° North 168 193 12,500  Level Oakland Center
12:12PM 40.0342 -121.7731 353° North 170 196 12,500  Level Oakland Center
12:13PM 40.0808 -121.7817 352° North 168 193 12,500  Level Oakland Center
12:14PM 40.1275 -121.7889 353° North 169 194 12,500  Level Oakland Center
12:15PM 40.1739 -121.7983 351° North 167 192 12,500  Level Oakland Center
12:16PM 40.2206 -121.8056 353° North 169 194 12,500  Level Oakland Center
12:17PM 40.2658 -121.8206 346° North 169 194 12,500  Level Oakland Center
12:18PM 40.3217 -121.8378 347° North 171 197 12,500  Level Oakland Center
12:19PM 40.3681 -121.8508 348° North 169 194 12,500  Level Oakland Center
12:20PM 40.4139 -121.8664 346° North 170 196 12,500  Level Oakland Center
12:21PM 40.4606 -121.8800 347° North 171 197 12,500  Level Oakland Center
12:22PM 40.5064 -121.8953 346° North 170 196 12,500  Level Oakland Center
12:23PM 40.5533 -121.9114 345° North 173 199 12,500  Level Oakland Center
12:24PM 40.5997 -121.9264 346° North 172 198 12,500  Level Oakland Center
12:25PM 40.6550 -121.9461 345° North 172 198 12,500  Level Oakland Center
12:26PM 40.7014 -121.9625 345° North 173 199 12,500  Level Oakland Center
12:27PM 40.7472 -121.9786 345° North 171 197 12,500  Level Oakland Center
12:28PM 40.7928 -121.9953 345° North 171 197 12,500  Level Oakland Center
12:29PM 40.8389 -122.0117 345° North 172 198 12,500  Level Oakland Center
12:30PM 40.8858 -122.0267 346° North 173 199 12,500  Level Oakland Center
12:32PM 40.9317 -122.0481 341° North 174 200 12,500  Level Oakland Center
12:33PM 40.9850 -122.0736 340° North 172 198 12,500  Level Oakland Center
12:34PM 41.0303 -122.0922 343° North 171 197 12,500  Level Oakland Center
12:35PM 41.0756 -122.1139 340° North 172 198 12,500  Level Oakland Center
12:36PM 41.1206 -122.1344 341° North 172 198 12,500  Level Oakland Center
12:37PM 41.1647 -122.1575 339° North 171 197 12,500  Level Oakland Center
12:38PM 41.2078 -122.1808 338° Northwest 169 194 12,500 -60 Level Oakland Center
12:39PM 41.2536 -122.2039 339° North 173 199 12,400 -60 Descending Oakland Center
12:40PM 41.2953 -122.2347 331° Northwest 172 198 12,400  Level Oakland Center
12:41PM 41.3436 -122.2722 330° Northwest 170 196 12,400  Level Oakland Center
12:42PM 41.3808 -122.2950 335° Northwest 169 194 12,400  Level Oakland Center
12:43PM 41.4286 -122.2978 358° North 170 196 12,400  Level Oakland Center
12:44PM 41.4761 -122.3022 356° North 171 197 12,400  Level Oakland Center
12:45PM 41.5325 -122.3094 355° North 170 196 12,400  Level Oakland Center
12:46PM 41.5783 -122.3150 355° North 167 192 12,400  Level Oakland Center
12:47PM 41.6250 -122.3208 355° North 168 193 12,400  Level Oakland Center
12:48PM 41.6719 -122.3267 355° North 169 194 12,400  Level Oakland Center
12:49PM 41.7183 -122.3322 355° North 168 193 12,400  Level Oakland Center
12:50PM 41.7644 -122.3381 355° North 167 192 12,400  Level Oakland Center
12:51PM 41.8119 -122.3433 355° North 169 194 12,400  Level Oakland Center
12:53PM 41.9172 -122.3547 355° North 166 191 12,500  Climbing Seattle Center
12:54PM 41.9642 -122.3611 354° North 169 194 12,500  Level Seattle Center
12:55PM 42.0106 -122.3661 355° North 167 192 12,500  Level Seattle Center
12:56PM 42.0578 -122.3725 354° North 168 193 12,500  Level Seattle Center
12:57PM 42.1047 -122.3789 354° North 169 194 12,500  Level Seattle Center
12:58PM 42.1517 -122.3828 356° North 167 192 12,500  Level Seattle Center
12:59PM 42.1981 -122.3872 356° North 168 193 12,500  Level Seattle Center
01:00PM 42.2464 -122.3942 354° North 172 198 12,500  Level Seattle Center
01:01PM 42.2944 -122.3994 355° North 172 198 12,500  Level Seattle Center
01:02PM 42.3411 -122.4056 354° North 169 194 12,500  Level Seattle Center
01:03PM 42.3875 -122.4111 355° North 167 192 12,500  Level Seattle Center
01:04PM 42.4433 -122.4200 353° North 169 194 12,500  Level Seattle Center
01:05PM 42.4903 -122.4242 356° North 169 194 12,500  Level Seattle Center
01:06PM 42.5372 -122.4286 356° North 168 193 12,500  Level Seattle Center
01:07PM 42.5844 -122.4350 354° North 170 196 12,500  Level Seattle Center
01:08PM 42.6311 -122.4417 354° North 168 193 12,500  Level Seattle Center
01:09PM 42.6778 -122.4456 356° North 168 193 12,500  Level Seattle Center
01:10PM 42.7244 -122.4519 354° North 169 194 12,500  Level Seattle Center
01:11PM 42.7722 -122.4567 356° North 171 197 12,500  Level Seattle Center
01:12PM 42.8192 -122.4639 354° North 171 197 12,500  Level Seattle Center
01:13PM 42.8667 -122.4683 356° North 171 197 12,500  Level Seattle Center
01:14PM 42.9133 -122.4753 354° North 166 191 12,500  Level Seattle Center
01:16PM 42.9697 -122.4817 355° North 168 193 12,500  Level Seattle Center
01:17PM 43.0167 -122.4869 355° North 167 192 12,500  Level Seattle Center
01:18PM 43.0631 -122.4914 356° North 167 192 12,500  Level Seattle Center
01:19PM 43.1089 -122.4961 356° North 165 190 12,500  Level Seattle Center
01:20PM 43.1544 -122.5058 351° North 166 191 12,500  Level Seattle Center
01:21PM 43.2017 -122.5097 357° North 167 192 12,500  Level Seattle Center
01:22PM 43.2481 -122.5144 356° North 168 193 12,500  Level Seattle Center
01:23PM 43.2939 -122.5192 356° North 167 192 12,500  Level Seattle Center
01:24PM 43.3392 -122.5261 354° North 166 191 12,500  Level Seattle Center
01:25PM 43.3856 -122.5319 355° North 166 191 12,500  Level Seattle Center
01:26PM 43.4308 -122.5364 356° North 165 190 12,500  Level Seattle Center
01:27PM 43.4853 -122.5436 355° North 165 190 12,500  Level Seattle Center
01:28PM 43.5311 -122.5492 355° North 164 189 12,500  Level Seattle Center
01:29PM 43.5772 -122.5547 355° North 165 190 12,500  Level Seattle Center
01:30PM 43.6217 -122.5606 355° North 163 188 12,500  Level Seattle Center
01:31PM 43.6664 -122.5658 355° North 162 186 12,500  Level Seattle Center
01:32PM 43.7125 -122.5722 354° North 164 189 12,500  Level Seattle Center
01:33PM 43.7578 -122.5781 355° North 164 189 12,500  Level Seattle Center
01:34PM 43.8044 -122.5828 356° North 166 191 12,500  Level Seattle Center
01:35PM 43.8500 -122.5872 356° North 165 190 12,500  Level Seattle Center
01:36PM 43.8956 -122.5936 354° North 165 190 12,500  Level Seattle Center
01:37PM 43.9508 -122.6003 355° North 166 191 12,500  Level Seattle Center
01:38PM 43.9967 -122.6061 355° North 166 191 12,500  Level Seattle Center
01:39PM 44.0425 -122.6131 354° North 166 191 12,500  Level Seattle Center
01:40PM 44.0883 -122.6189 355° North 166 191 12,500  Level Seattle Center
01:41PM 44.1333 -122.6244 355° North 163 188 12,500 -60 Level Seattle Center
01:42PM 44.1789 -122.6303 355° North 164 189 12,400 -300 Descending Seattle Center
01:43PM 44.2272 -122.6361 355° North 173 199 11,900 -540 Descending Seattle Center
01:44PM 44.2792 -122.6433 354° North 185 213 11,400 -600 Descending Seattle Center
01:45PM 44.3308 -122.6492 355° North 186 214 10,700 -720 Descending Seattle Center
01:46PM 44.3814 -122.6564 354° North 186 214 10,000 -720 Descending Seattle Center
01:47PM 44.4414 -122.6633 355° North 182 209 9,300 -720 Descending Seattle Center
01:48PM 44.4894 -122.6708 354° North 176 203 8,600 -600 Descending Seattle Center
01:49PM 44.5375 -122.6764 355° North 175 201 8,100 -540 Descending Seattle Center
01:50PM 44.5836 -122.6825 355° North 169 194 7,600 -540 Descending Seattle Center
01:51PM 44.6297 -122.6886 355° North 167 192 7,100 -540 Descending Seattle Center
01:52PM 44.6767 -122.6956 354° North 165 190 6,600 -480 Descending Seattle Center
01:53PM 44.7222 -122.7003 356° North 168 193 6,200 -540 Descending Seattle Center
01:54PM 44.7683 -122.7075 354° North 167 192 5,600 -540 Descending Seattle Center
01:55PM 44.8125 -122.7125 355° North 161 185 5,200 -540 Descending Seattle Center
01:56PM 44.8658 -122.7194 355° North 161 185 4,600 -540 Descending Seattle Center
01:57PM 44.9100 -122.7264 354° North 160 184 4,100 -420 Descending Seattle Center
01:58PM 44.9400 -122.7281 358° North 171 197 3,900 -300 Descending Seattle Center